createdAt,value
2023-03-30T00:00:01.081Z,3.25
2023-03-30T00:02:37.583Z,3.55
2023-03-30T00:05:11.854Z,3.83
2023-03-30T00:07:46.556Z,3.47
2023-03-30T00:10:20.122Z,3.22
2023-03-30T00:12:53.591Z,3.50
2023-03-30T00:15:26.750Z,3.42
2023-03-30T00:18:00.552Z,4.05
2023-03-30T00:20:33.635Z,3.05
2023-03-30T00:23:07.143Z,3.35
2023-03-30T00:25:39.886Z,3.47
2023-03-30T00:28:12.389Z,3.45
2023-03-30T00:30:46.695Z,4.58
2023-03-30T00:33:27.488Z,5.58
2023-03-30T00:35:58.525Z,5.45
2023-03-30T00:38:30.950Z,5.22
2023-03-30T00:41:03.621Z,5.90
2023-03-30T00:43:38.764Z,5.87
2023-03-30T00:46:11.645Z,3.95
2023-03-30T00:48:45.269Z,4.35
2023-03-30T00:51:18.045Z,3.33
2023-03-30T00:53:53.074Z,3.20
2023-03-30T00:56:28.152Z,4.03
2023-03-30T00:59:02.676Z,4.08
2023-03-30T01:01:37.025Z,4.50
2023-03-30T01:04:11.347Z,3.80
2023-03-30T01:06:46.022Z,4.35
2023-03-30T01:09:19.130Z,3.92
2023-03-30T01:11:52.199Z,3.35
2023-03-30T01:14:24.580Z,3.92
2023-03-30T01:17:23.449Z,3.95
2023-03-30T01:20:38.748Z,4.00
2023-03-30T01:23:52.555Z,3.58
2023-03-30T01:26:45.286Z,3.85
2023-03-30T01:29:22.618Z,2.98
2023-03-30T01:32:18.002Z,3.05
2023-03-30T01:37:47.056Z,2.83
2023-03-30T01:40:29.919Z,3.15
2023-03-30T01:46:11.613Z,4.20
2023-03-30T01:49:20.460Z,2.22
2023-03-30T01:52:04.006Z,2.67
2023-03-30T01:54:58.937Z,2.62
2023-03-30T01:57:42.659Z,3.25
2023-03-30T02:00:18.019Z,3.35
2023-03-30T02:02:59.317Z,2.87
2023-03-30T02:05:32.086Z,3.27
2023-03-30T02:08:12.469Z,2.47
2023-03-30T02:10:46.024Z,3.02
2023-03-30T02:13:18.712Z,2.80
2023-03-30T02:15:59.789Z,4.45
2023-03-30T02:18:32.784Z,2.80
2023-03-30T02:21:06.378Z,3.45
2023-03-30T02:23:53.305Z,3.62
2023-03-30T02:26:27.511Z,3.17
2023-03-30T02:29:00.595Z,3.10
2023-03-30T02:31:34.564Z,16.97
2023-03-30T02:34:29.953Z,7.37
2023-03-30T02:37:19.449Z,4.10
2023-03-30T02:40:00.200Z,3.00
2023-03-30T02:43:13.266Z,3.92
2023-03-30T02:45:53.732Z,2.83
2023-03-30T02:48:52.568Z,2.37
2023-03-30T02:51:44.859Z,3.58
2023-03-30T02:54:42.582Z,4.17
2023-03-30T03:01:04.371Z,3.67
2023-03-30T03:03:49.675Z,2.77
2023-03-30T03:06:23.941Z,3.42
2023-03-30T03:08:58.322Z,3.15
2023-03-30T03:11:32.509Z,2.77
2023-03-30T03:14:05.809Z,3.00
2023-03-30T03:16:39.723Z,3.12
2023-03-30T03:19:17.154Z,2.65
2023-03-30T03:21:52.870Z,2.72
2023-03-30T03:24:25.736Z,2.60
2023-03-30T03:27:01.143Z,3.33
2023-03-30T03:29:36.490Z,3.95
2023-03-30T03:32:09.595Z,4.47
2023-03-30T03:37:19.325Z,6.83
2023-03-30T03:39:52.963Z,7.37
2023-03-30T03:42:25.821Z,4.65
2023-03-30T03:45:00.237Z,3.65
2023-03-30T03:47:34.841Z,4.43
2023-03-30T03:50:10.101Z,4.25
2023-03-30T03:52:43.361Z,7.47
2023-03-30T03:55:16.294Z,6.83
2023-03-30T03:57:49.433Z,4.27
2023-03-30T04:00:23.579Z,5.90
2023-03-30T04:02:57.559Z,3.50
2023-03-30T04:05:31.031Z,3.50
2023-03-30T04:08:04.941Z,4.35
2023-03-30T04:10:39.274Z,3.83
2023-03-30T04:13:24.584Z,3.67
2023-03-30T04:16:16.512Z,4.42
2023-03-30T04:19:00.108Z,4.03
2023-03-30T04:21:44.625Z,6.92
2023-03-30T04:24:23.120Z,3.22
2023-03-30T04:27:08.328Z,4.75
2023-03-30T04:29:45.848Z,3.90
2023-03-30T04:32:39.958Z,4.37
2023-03-30T04:35:33.846Z,4.12
2023-03-30T04:38:14.186Z,3.77
2023-03-30T04:40:53.172Z,3.85
2023-03-30T04:43:27.378Z,4.17
2023-03-30T04:46:13.686Z,15.65
2023-03-30T04:48:51.261Z,5.67
2023-03-30T04:51:28.372Z,4.37
2023-03-30T04:54:06.751Z,4.15
2023-03-30T04:56:47.881Z,4.35
2023-03-30T04:59:22.273Z,3.90
2023-03-30T05:02:04.142Z,3.72
2023-03-30T05:04:41.681Z,3.20
2023-03-30T05:07:24.758Z,4.95
2023-03-30T05:10:09.637Z,3.83
2023-03-30T05:12:45.556Z,5.40
2023-03-30T05:15:20.313Z,3.62
2023-03-30T05:18:02.029Z,4.55
2023-03-30T05:20:36.673Z,5.12
2023-03-30T05:23:19.895Z,3.95
2023-03-30T05:26:07.595Z,5.25
2023-03-30T05:31:14.935Z,6.22
2023-03-30T05:33:55.905Z,5.75
2023-03-30T05:36:48.305Z,4.70
2023-03-30T05:39:38.679Z,5.87
2023-03-30T05:42:14.290Z,7.03
2023-03-30T05:47:29.191Z,6.60
2023-03-30T05:50:12.810Z,6.00
2023-03-30T05:52:59.629Z,3.40
2023-03-30T05:55:34.549Z,8.03
2023-03-30T05:58:08.954Z,3.90
2023-03-30T06:01:01.062Z,5.42
2023-03-30T06:03:36.537Z,5.33
2023-03-30T06:06:10.452Z,4.87
2023-03-30T06:08:43.496Z,3.12
2023-03-30T06:11:17.745Z,4.20
2023-03-30T06:13:51.923Z,3.85
2023-03-30T06:16:25.787Z,4.80
2023-03-30T06:18:58.742Z,3.75
2023-03-30T06:21:32.852Z,3.08
2023-03-30T06:24:08.465Z,2.72
2023-03-30T06:26:43.230Z,3.42
2023-03-30T06:29:16.080Z,6.87
2023-03-30T06:31:48.551Z,3.83
2023-03-30T06:34:22.752Z,2.70
2023-03-30T06:36:55.326Z,2.60
2023-03-30T06:39:30.023Z,3.95
2023-03-30T06:42:02.698Z,2.35
2023-03-30T06:44:40.010Z,5.58
2023-03-30T06:47:14.293Z,2.40
2023-03-30T06:49:47.068Z,2.77
2023-03-30T06:52:40.835Z,2.80
2023-03-30T06:55:13.945Z,3.25
2023-03-30T06:57:46.715Z,2.80
2023-03-30T07:00:19.991Z,2.17
2023-03-30T07:03:12.013Z,4.08
2023-03-30T07:05:51.180Z,2.90
2023-03-30T07:08:28.833Z,2.30
2023-03-30T07:11:07.304Z,2.92
2023-03-30T07:13:43.134Z,2.37
2023-03-30T07:16:16.587Z,4.50
2023-03-30T07:18:49.226Z,4.35
2023-03-30T07:21:22.342Z,3.65
2023-03-30T07:23:55.049Z,2.65
2023-03-30T07:26:33.068Z,1.47
2023-03-30T07:29:07.632Z,5.58
2023-03-30T07:31:41.915Z,2.95
2023-03-30T07:36:51.611Z,1.60
2023-03-30T07:39:25.417Z,3.27
2023-03-30T07:41:58.052Z,2.12
2023-03-30T07:44:31.177Z,3.62
2023-03-30T07:47:07.055Z,2.90
2023-03-30T07:49:40.301Z,1.70
2023-03-30T07:52:14.098Z,2.05
2023-03-30T07:57:25.755Z,2.77
2023-03-30T07:59:58.613Z,2.45
2023-03-30T08:02:37.012Z,2.22
2023-03-30T08:05:11.831Z,3.25
2023-03-30T08:07:54.214Z,1.55
2023-03-30T08:10:29.616Z,1.95
2023-03-30T08:13:03.433Z,1.60
2023-03-30T08:15:37.040Z,1.55
2023-03-30T08:18:09.679Z,3.50
2023-03-30T08:20:43.606Z,2.95
2023-03-30T08:23:16.824Z,2.85
2023-03-30T08:25:51.530Z,5.42
2023-03-30T08:28:42.239Z,1.60
2023-03-30T08:31:17.314Z,2.47
2023-03-30T08:33:51.060Z,2.30
2023-03-30T08:36:24.677Z,3.80
2023-03-30T08:38:58.548Z,3.37
2023-03-30T08:41:51.176Z,2.55
2023-03-30T08:44:40.420Z,4.05
2023-03-30T08:47:17.974Z,2.22
2023-03-30T08:50:19.309Z,3.08
2023-03-30T08:52:52.169Z,2.15
2023-03-30T08:55:32.431Z,1.80
2023-03-30T08:58:33.001Z,2.30
2023-03-30T09:01:25.330Z,18.67
2023-03-30T09:04:11.783Z,2.52
2023-03-30T09:06:57.638Z,1.70
2023-03-30T09:09:32.594Z,3.37
2023-03-30T09:12:41.300Z,3.20
2023-03-30T09:15:30.516Z,1.98
2023-03-30T09:18:07.540Z,2.62
2023-03-30T09:20:40.634Z,2.17
2023-03-30T09:23:16.611Z,2.00
2023-03-30T09:26:08.679Z,2.22
2023-03-30T09:28:50.542Z,2.80
2023-03-30T09:31:41.860Z,1.57
2023-03-30T09:34:48.350Z,4.67
2023-03-30T09:37:22.508Z,2.33
2023-03-30T09:39:55.392Z,1.82
2023-03-30T09:42:38.882Z,1.75
2023-03-30T09:45:33.161Z,1.90
2023-03-30T09:48:08.782Z,2.30
2023-03-30T09:51:03.629Z,2.95
2023-03-30T09:53:38.088Z,2.40
2023-03-30T09:56:24.510Z,1.87
2023-03-30T09:58:57.474Z,2.75
2023-03-30T10:01:38.724Z,1.60
2023-03-30T10:04:13.105Z,4.53
2023-03-30T10:06:51.574Z,5.60
2023-03-30T10:09:26.034Z,7.25
2023-03-30T10:14:36.451Z,2.33
2023-03-30T10:17:26.675Z,1.87
2023-03-30T10:20:24.556Z,2.22
2023-03-30T10:23:15.220Z,2.02
2023-03-30T10:25:50.650Z,1.90
2023-03-30T10:28:29.862Z,2.05
2023-03-30T10:31:08.875Z,1.60
2023-03-30T10:33:44.066Z,5.67
2023-03-30T10:36:17.503Z,1.57
2023-03-30T10:38:50.052Z,2.12
2023-03-30T10:41:24.089Z,1.30
2023-03-30T10:43:56.528Z,3.00
2023-03-30T10:46:29.052Z,2.77
2023-03-30T10:49:23.151Z,7.55
2023-03-30T10:52:11.908Z,2.27
2023-03-30T10:54:57.263Z,1.98
2023-03-30T10:57:40.322Z,13.50
2023-03-30T11:00:20.805Z,3.98
2023-03-30T11:03:05.119Z,1.72
2023-03-30T11:05:41.416Z,1.55
2023-03-30T11:08:29.758Z,1.10
2023-03-30T11:11:03.770Z,0.95
2023-03-30T11:13:42.727Z,1.67
2023-03-30T11:16:39.453Z,2.47
2023-03-30T11:19:35.245Z,1.25
2023-03-30T11:22:33.639Z,3.72
2023-03-30T11:25:10.927Z,3.42
2023-03-30T11:27:56.575Z,1.65
2023-03-30T11:30:31.652Z,1.45
2023-03-30T11:33:29.609Z,2.75
2023-03-30T11:36:20.249Z,2.27
2023-03-30T11:39:07.255Z,1.00
2023-03-30T11:42:03.016Z,1.25
2023-03-30T11:44:37.094Z,1.35
2023-03-30T11:47:30.455Z,1.00
2023-03-30T11:50:12.137Z,2.12
2023-03-30T11:52:53.952Z,1.30
2023-03-30T11:55:37.612Z,3.40
2023-03-30T11:58:34.648Z,2.35
2023-03-30T12:01:43.647Z,1.32
2023-03-30T12:04:29.755Z,1.12
2023-03-30T12:07:04.028Z,1.37
2023-03-30T12:09:42.288Z,1.98
2023-03-30T12:12:39.630Z,1.30
2023-03-30T12:15:50.272Z,2.67
2023-03-30T12:18:46.479Z,1.40
2023-03-30T12:21:53.914Z,1.80
2023-03-30T12:25:12.706Z,1.80
2023-03-30T12:28:16.339Z,1.32
2023-03-30T12:30:58.300Z,1.40
2023-03-30T12:33:39.541Z,1.45
2023-03-30T12:36:41.514Z,2.90
2023-03-30T12:39:24.931Z,2.05
2023-03-30T12:42:10.522Z,2.55
2023-03-30T12:45:20.360Z,10.25
2023-03-30T12:48:19.173Z,1.62
2023-03-30T12:51:02.871Z,1.72
2023-03-30T12:54:17.551Z,1.90
2023-03-30T12:57:30.283Z,4.83
2023-03-30T13:00:15.852Z,10.05
2023-03-30T13:02:59.367Z,6.60
2023-03-30T13:05:35.580Z,3.87
2023-03-30T13:08:19.394Z,3.00
2023-03-30T13:10:52.777Z,2.00
2023-03-30T13:13:47.890Z,2.30
2023-03-30T13:16:57.538Z,3.37
2023-03-30T13:19:41.416Z,3.45
2023-03-30T13:22:19.005Z,2.02
2023-03-30T13:25:37.631Z,3.90
2023-03-30T13:28:56.818Z,2.10
2023-03-30T13:31:58.164Z,2.67
2023-03-30T13:34:54.867Z,2.40
2023-03-30T13:41:26.867Z,1.95
2023-03-30T13:44:35.505Z,4.90
2023-03-30T13:47:29.179Z,2.33
2023-03-30T13:50:05.968Z,2.65
2023-03-30T13:52:43.489Z,1.80
2023-03-30T13:55:26.515Z,2.65
2023-03-30T13:58:06.191Z,4.75
2023-03-30T14:00:54.588Z,2.80
2023-03-30T14:03:42.116Z,1.95
2023-03-30T14:06:19.074Z,1.77
2023-03-30T14:09:09.939Z,2.70
2023-03-30T14:11:58.805Z,3.35
2023-03-30T14:14:53.286Z,3.92
2023-03-30T14:17:25.974Z,2.55
2023-03-30T14:20:32.349Z,2.02
2023-03-30T14:25:43.025Z,2.67
2023-03-30T14:28:20.418Z,2.30
2023-03-30T14:30:59.233Z,4.05
2023-03-30T14:33:34.431Z,2.10
2023-03-30T14:36:09.483Z,3.90
2023-03-30T14:38:48.538Z,2.67
2023-03-30T14:41:29.261Z,4.85
2023-03-30T14:44:07.404Z,2.83
2023-03-30T14:46:48.698Z,2.98
2023-03-30T14:49:24.469Z,2.12
2023-03-30T14:52:13.108Z,4.33
2023-03-30T14:54:54.504Z,4.20
2023-03-30T14:57:21.977Z,2.40
2023-03-30T15:00:00.898Z,2.58
2023-03-30T15:02:34.496Z,2.40
2023-03-30T15:05:07.331Z,3.08
2023-03-30T15:07:40.544Z,4.25
2023-03-30T15:10:26.841Z,2.30
2023-03-30T15:13:00.938Z,4.47
2023-03-30T15:15:34.128Z,4.37
2023-03-30T15:18:06.681Z,3.55
2023-03-30T15:20:40.135Z,3.00
2023-03-30T15:23:14.218Z,1.85
2023-03-30T15:25:46.760Z,2.62
2023-03-30T15:28:21.023Z,2.55
2023-03-30T15:30:54.149Z,3.08
2023-03-30T15:33:45.952Z,2.93
2023-03-30T15:36:25.141Z,9.13
2023-03-30T15:38:59.568Z,20.72
2023-03-30T15:41:52.456Z,49.15
2023-03-30T15:44:25.442Z,7.42
2023-03-30T15:46:58.786Z,5.28
2023-03-30T15:49:42.092Z,4.33
2023-03-30T15:52:36.881Z,5.62
2023-03-30T15:55:25.640Z,4.08
2023-03-30T15:57:59.769Z,3.50
2023-03-30T16:00:34.544Z,2.30
2023-03-30T16:03:09.827Z,4.65
2023-03-30T16:05:45.513Z,4.78
2023-03-30T16:08:18.506Z,4.60
2023-03-30T16:10:51.952Z,3.67
2023-03-30T16:13:24.981Z,2.92
2023-03-30T16:15:57.943Z,2.95
2023-03-30T16:18:31.192Z,4.08
2023-03-30T16:21:05.558Z,4.08
2023-03-30T16:23:39.605Z,3.35
2023-03-30T16:26:14.051Z,2.72
2023-03-30T16:28:46.836Z,2.73
2023-03-30T16:31:22.581Z,3.40
2023-03-30T16:33:55.875Z,3.60
2023-03-30T16:36:29.514Z,4.58
2023-03-30T16:39:04.420Z,4.78
2023-03-30T16:41:37.043Z,4.87
2023-03-30T16:44:10.292Z,4.35
2023-03-30T16:46:44.228Z,3.70
2023-03-30T16:49:24.659Z,7.90
2023-03-30T16:51:58.397Z,5.95
2023-03-30T16:54:34.031Z,6.90
2023-03-30T16:57:10.092Z,166.35
2023-03-30T16:59:43.429Z,45.12
2023-03-30T17:02:19.393Z,15.63
2023-03-30T17:04:52.400Z,9.30
2023-03-30T17:07:26.755Z,8.73
2023-03-30T17:09:59.706Z,10.05
2023-03-30T17:12:33.187Z,10.08
2023-03-30T17:15:06.690Z,7.28
2023-03-30T17:17:40.339Z,8.78
2023-03-30T17:20:27.832Z,7.67
2023-03-30T17:23:00.446Z,9.08
2023-03-30T17:25:35.987Z,9.78
2023-03-30T17:28:11.999Z,8.80
2023-03-30T17:30:44.997Z,6.22
2023-03-30T17:33:18.553Z,10.50
2023-03-30T17:35:54.666Z,8.93
2023-03-30T17:38:28.857Z,12.43
2023-03-30T17:41:02.460Z,7.60
2023-03-30T17:43:35.022Z,11.57
2023-03-30T17:46:09.063Z,11.45
2023-03-30T17:48:42.020Z,10.30
2023-03-30T17:51:15.628Z,13.13
2023-03-30T17:53:48.389Z,14.40
2023-03-30T17:56:22.189Z,21.40
2023-03-30T17:58:55.918Z,13.32
2023-03-30T18:01:29.238Z,10.68
2023-03-30T18:04:02.882Z,10.93
2023-03-30T18:06:36.449Z,12.80
2023-03-30T18:09:17.703Z,10.75
2023-03-30T18:11:50.864Z,15.68
2023-03-30T18:14:23.897Z,13.78
2023-03-30T18:17:05.937Z,12.23
2023-03-30T18:19:31.587Z,19.27
2023-03-30T18:22:04.698Z,15.63
2023-03-30T18:24:39.935Z,13.13
2023-03-30T18:27:13.953Z,24.77
2023-03-30T18:29:47.765Z,25.52
2023-03-30T18:32:20.790Z,18.65
2023-03-30T18:34:53.541Z,16.62
2023-03-30T18:37:26.472Z,24.23
2023-03-30T18:39:59.441Z,17.82
2023-03-30T18:42:32.687Z,16.67
2023-03-30T18:45:08.173Z,19.73
2023-03-30T18:47:42.265Z,21.33
2023-03-30T18:50:25.498Z,21.20
2023-03-30T18:52:58.755Z,23.07
2023-03-30T18:55:35.235Z,22.15
2023-03-30T18:58:31.479Z,25.45
2023-03-30T19:01:04.991Z,33.88
2023-03-30T19:03:39.327Z,25.17
2023-03-30T19:06:14.683Z,29.85
2023-03-30T19:08:50.305Z,29.70
2023-03-30T19:11:27.192Z,28.35
2023-03-30T19:14:00.914Z,30.85
2023-03-30T19:19:09.045Z,37.03
2023-03-30T19:24:16.071Z,43.68
2023-03-30T19:26:49.449Z,46.83
2023-03-30T19:29:22.687Z,42.80
2023-03-30T19:31:58.249Z,42.30
2023-03-30T19:34:31.769Z,51.13
2023-03-30T19:37:06.224Z,51.63
2023-03-30T19:39:38.722Z,61.77
2023-03-30T19:42:12.397Z,49.38
2023-03-30T19:44:45.377Z,48.85
2023-03-30T19:47:18.999Z,45.23
2023-03-30T19:49:52.212Z,50.95
2023-03-30T19:52:25.128Z,57.20
2023-03-30T19:54:58.245Z,56.13
2023-03-30T19:57:31.309Z,53.98
2023-03-30T20:00:10.671Z,52.93
2023-03-30T20:02:47.810Z,53.17
2023-03-30T20:05:21.874Z,49.63
2023-03-30T20:07:54.968Z,46.92
2023-03-30T20:10:27.797Z,36.15
2023-03-30T20:13:00.418Z,33.25
2023-03-30T20:15:33.491Z,37.42
2023-03-30T20:18:06.665Z,24.92
2023-03-30T20:20:39.285Z,29.35
2023-03-30T20:23:12.317Z,29.98
2023-03-30T20:25:49.643Z,26.95
2023-03-30T20:28:22.812Z,31.02
2023-03-30T20:30:57.649Z,24.72
2023-03-30T20:36:03.421Z,31.12
2023-03-30T20:38:38.019Z,27.90
2023-03-30T20:41:11.756Z,43.45
2023-03-30T20:43:57.074Z,32.53
2023-03-30T20:46:26.192Z,30.50
2023-03-30T20:49:00.706Z,32.75
2023-03-30T20:51:33.485Z,34.08
2023-03-30T20:54:07.159Z,27.00
2023-03-30T20:56:41.378Z,37.40
2023-03-30T20:59:13.849Z,35.63
2023-03-30T21:01:49.153Z,29.07
2023-03-30T21:04:21.974Z,32.63
2023-03-30T21:06:56.301Z,29.92
2023-03-30T21:09:29.700Z,36.55
2023-03-30T21:12:02.040Z,30.00
2023-03-30T21:14:35.526Z,28.90
2023-03-30T21:17:08.149Z,25.30
2023-03-30T21:19:41.079Z,33.45
2023-03-30T21:22:14.887Z,38.13
2023-03-30T21:24:47.766Z,37.63
2023-03-30T21:27:20.722Z,37.90
2023-03-30T21:29:53.780Z,36.33
2023-03-30T21:32:26.394Z,35.65
2023-03-30T21:34:59.322Z,25.15
2023-03-30T21:37:33.267Z,36.48
2023-03-30T21:40:08.878Z,31.80
2023-03-30T21:42:41.443Z,34.53
2023-03-30T21:45:14.162Z,31.68
2023-03-30T21:47:46.752Z,27.50
2023-03-30T21:50:19.592Z,29.85
2023-03-30T21:52:59.434Z,29.75
2023-03-30T21:55:32.270Z,28.70
2023-03-30T21:58:05.266Z,27.98
2023-03-30T22:00:37.688Z,26.10
2023-03-30T22:03:11.384Z,26.77
2023-03-30T22:05:43.971Z,32.50
2023-03-30T22:08:18.316Z,33.50
2023-03-30T22:13:32.554Z,29.00
2023-03-30T22:16:09.063Z,33.08
2023-03-30T22:18:42.474Z,36.77
2023-03-30T22:21:18.688Z,40.35
2023-03-30T22:23:51.467Z,31.45
2023-03-30T22:26:23.938Z,32.60
2023-03-30T22:28:57.120Z,34.90
2023-03-30T22:31:30.921Z,38.05
2023-03-30T22:34:04.216Z,39.95
2023-03-30T22:36:37.023Z,42.20
2023-03-30T22:39:10.181Z,42.05
2023-03-30T22:41:43.174Z,43.70
2023-03-30T22:44:17.301Z,44.60
2023-03-30T22:46:50.075Z,35.65
2023-03-30T22:49:24.230Z,44.00
2023-03-30T22:51:58.766Z,40.33
2023-03-30T22:54:32.450Z,44.75
2023-03-30T22:57:05.749Z,47.38
2023-03-30T22:59:40.041Z,44.93
2023-03-30T23:02:12.960Z,44.67
2023-03-30T23:04:47.108Z,40.33
2023-03-30T23:07:19.925Z,40.08
2023-03-30T23:09:52.520Z,44.88
2023-03-30T23:12:26.525Z,44.73
2023-03-30T23:14:59.574Z,46.50
2023-03-30T23:17:32.271Z,42.23
2023-03-30T23:20:10.622Z,44.08
2023-03-30T23:22:43.650Z,46.02
2023-03-30T23:25:16.780Z,45.78
2023-03-30T23:27:49.413Z,42.45
2023-03-30T23:30:21.994Z,42.98
2023-03-30T23:32:55.350Z,46.25
2023-03-30T23:35:29.298Z,46.13
2023-03-30T23:38:03.371Z,47.80
2023-03-30T23:40:36.338Z,51.33
2023-03-30T23:43:08.970Z,44.18
2023-03-30T23:45:43.339Z,38.80
2023-03-30T23:48:15.901Z,46.85
2023-03-30T23:50:48.659Z,42.40
2023-03-30T23:53:21.193Z,48.68
2023-03-30T23:55:54.279Z,44.20
2023-03-30T23:58:27.014Z,44.10
